Time;durP1;ratioP1;P1;durP2;ratioP2;P2;SDS_P1;SDS_P2;PMS_P1;PMS_P2;Temp;Humidity;BMP_temperature;BMP_pressure;BME280_temperature;BME280_humidity;BME280_pressure;Samples;Min_cycle;Max_cycle;Signal;HPM_P1;HPM_P2
2022/07/18 00:14:57;;;;;;;3.63;3.10;;;;;;;16.22;86.32;100509.38;31304952;28;20084;-67
2022/07/18 00:30:00;;;;;;;3.73;2.47;;;;;;;16.09;86.79;100514.16;31306929;28;20049;-66
2022/07/18 00:45:03;;;;;;;5.13;3.30;;;;;;;15.89;85.92;100527.38;31283543;28;20053;-67
2022/07/18 01:15:28;;;;;;;3.10;2.40;;;;;;;15.78;83.97;100533.25;31315750;28;20049;-67
2022/07/18 01:30:30;;;;;;;5.70;2.17;;;;;;;15.64;83.89;100539.19;31303053;28;21114;-66
2022/07/18 01:45:32;;;;;;;2.27;1.93;;;;;;;15.61;83.78;100546.31;31301604;28;20068;-67
2022/07/18 02:00:34;;;;;;;3.20;2.30;;;;;;;15.52;83.55;100564.59;31325444;28;20498;-75
2022/07/18 02:15:36;;;;;;;2.43;2.00;;;;;;;15.34;84.93;100576.88;31313095;28;20052;-75
2022/07/18 02:30:38;;;;;;;2.87;1.90;;;;;;;15.24;84.48;100591.66;31325093;28;20041;-74
2022/07/18 02:45:42;;;;;;;3.90;2.10;;;;;;;15.40;83.81;100585.28;31318989;28;20426;-75
2022/07/18 03:00:44;;;;;;;3.43;2.13;;;;;;;15.63;82.47;100584.94;31325297;28;20048;-74
2022/07/18 03:15:46;;;;;;;4.27;2.50;;;;;;;15.87;80.44;100579.84;31317366;28;20112;-75
2022/07/18 03:30:48;;;;;;;3.17;2.40;;;;;;;16.23;78.55;100595.06;31300892;28;20053;-75
2022/07/18 03:45:50;;;;;;;4.37;2.10;;;;;;;16.46;76.55;100591.88;31327658;28;20510;-75
2022/07/18 04:00:53;;;;;;;4.82;3.22;;;;;;;16.84;75.30;100588.94;31265248;28;20510;-75
2022/07/18 04:15:55;;;;;;;3.92;2.58;;;;;;;17.29;72.92;100596.59;31292341;28;20057;-75
2022/07/18 04:30:57;;;;;;;1.98;1.50;;;;;;;17.73;71.19;100607.41;31294190;28;20412;-75
2022/07/18 04:45:59;;;;;;;8.23;3.33;;;;;;;18.30;68.65;100616.00;31305233;28;20052;-74
2022/07/18 05:01:01;;;;;;;1.90;1.20;;;;;;;18.63;63.94;100611.41;31313965;28;20053;-75
2022/07/18 05:16:03;;;;;;;0.90;0.70;;;;;;;18.89;59.80;100617.31;31312399;28;20485;-75
2022/07/18 05:31:06;;;;;;;2.78;1.00;;;;;;;19.56;57.54;100612.63;31306874;28;20092;-75
2022/07/18 05:46:08;;;;;;;2.10;1.10;;;;;;;20.00;56.25;100607.28;31313814;28;20052;-75
2022/07/18 06:01:19;;;;;;;2.20;1.25;;;;;;;20.48;53.88;100596.94;31335279;28;20053;-77
2022/07/18 06:16:22;;;;;;;3.40;1.27;;;;;;;21.25;51.39;100595.97;31334645;28;20057;-76
2022/07/18 06:31:24;;;;;;;1.30;0.80;;;;;;;21.65;49.35;100600.78;31310008;28;20053;-78
2022/07/18 06:46:26;;;;;;;1.20;0.90;;;;;;;22.02;47.60;100610.03;31310643;28;20049;-76
2022/07/18 07:01:29;;;;;;;1.88;0.70;;;;;;;22.58;45.27;100602.34;31310932;28;20045;-75
2022/07/18 07:31:56;;;;;;;1.33;0.88;;;;;;;23.61;43.07;100617.22;31270726;28;20132;-75
2022/07/18 07:46:59;;;;;;;2.00;1.00;;;;;;;23.83;42.49;100617.34;31279987;28;20053;-75
2022/07/18 08:02:01;;;;;;;2.50;1.00;;;;;;;24.15;41.71;100631.78;31278510;28;20052;-75
2022/07/18 08:17:03;;;;;;;0.80;0.70;;;;;;;24.63;39.78;100625.38;31289230;28;20059;-75
2022/07/18 08:32:08;;;;;;;1.10;0.65;;;;;;;25.02;39.62;100633.75;31291292;28;20056;-79
2022/07/18 08:47:10;;;;;;;0.80;0.77;;;;;;;25.79;37.50;100620.97;31268975;28;20083;-73
2022/07/18 09:02:13;;;;;;;1.02;0.60;;;;;;;26.30;35.75;100618.72;31260655;28;20052;-76
2022/07/18 09:17:19;;;;;;;0.95;0.50;;;;;;;26.70;35.47;100615.16;31279407;28;20547;-76
2022/07/18 09:32:23;;;;;;;1.33;0.60;;;;;;;27.14;34.68;100621.66;31294427;28;20494;-81
2022/07/18 09:47:26;;;;;;;4.93;1.00;;;;;;;27.51;33.54;100621.78;31307106;28;20060;-78
2022/07/18 10:02:28;;;;;;;2.75;0.60;;;;;;;28.18;30.43;100637.72;31345411;28;20136;-81
2022/07/18 10:17:31;;;;;;;1.25;0.88;;;;;;;28.79;31.06;100627.69;31299150;28;20410;-78
2022/07/18 10:32:41;;;;;;;2.20;0.40;;;;;;;28.29;31.25;100624.91;31307114;28;20880;-77
2022/07/18 10:47:43;;;;;;;3.78;0.40;;;;;;;29.13;30.15;100604.78;31303471;28;20053;-74
2022/07/18 11:03:08;;;;;;;2.97;0.60;;;;;;;29.62;29.29;100609.97;31291601;28;21262;-77
2022/07/18 11:18:11;;;;;;;7.57;4.05;;;;;;;29.73;28.05;100598.56;31285484;28;20089;-76
2022/07/18 11:33:28;;;;;;;0.85;0.40;;;;;;;27.53;28.82;100601.72;31284636;28;20146;-74
2022/07/18 11:48:31;;;;;;;3.78;1.52;;;;;;;26.33;30.65;100612.13;31292625;28;20045;-75
2022/07/18 12:03:35;;;;;;;3.60;0.90;;;;;;;25.63;31.95;100608.66;31298538;28;20063;-79
2022/07/18 12:18:36;;;;;;;2.17;0.70;;;;;;;25.30;32.85;100592.78;31302041;28;20083;-73
2022/07/18 12:33:42;;;;;;;4.85;1.20;;;;;;;24.95;33.64;100606.50;31285956;28;20061;-79
2022/07/18 12:48:44;;;;;;;1.48;1.02;;;;;;;24.77;34.55;100607.72;31300483;28;20054;-80
2022/07/18 13:03:46;;;;;;;3.50;1.00;;;;;;;24.48;35.30;100609.72;31308205;28;20057;-76
2022/07/18 13:18:48;;;;;;;1.40;1.20;;;;;;;24.51;35.36;100613.50;31312557;28;20049;-76
2022/07/18 13:33:50;;;;;;;6.10;2.70;;;;;;;24.27;35.80;100627.09;31303163;28;20056;-77
2022/07/18 13:48:53;;;;;;;2.00;1.02;;;;;;;24.07;36.54;100631.53;31353248;28;20464;-76
2022/07/18 14:03:55;;;;;;;2.07;1.10;;;;;;;23.98;36.44;100617.13;31318262;28;20064;-78
2022/07/18 14:18:57;;;;;;;5.03;1.20;;;;;;;23.87;36.77;100628.91;31309887;28;20402;-75
2022/07/18 14:34:00;;;;;;;1.20;0.80;;;;;;;23.76;37.05;100634.44;31313259;28;20052;-77
2022/07/18 14:49:02;;;;;;;1.30;1.00;;;;;;;23.63;37.83;100634.09;31317832;28;20377;-79
2022/07/18 15:04:04;;;;;;;3.33;1.33;;;;;;;23.55;38.54;100635.84;31303555;28;20057;-78
2022/07/18 15:19:11;;;;;;;1.95;1.15;;;;;;;23.48;38.42;100646.09;31310900;28;20055;-77
2022/07/18 15:34:13;;;;;;;3.43;0.93;;;;;;;23.23;38.53;100660.00;31320765;28;20063;-80
2022/07/18 15:49:15;;;;;;;2.47;1.53;;;;;;;22.95;38.90;100662.56;31305527;28;21413;-75
2022/07/18 16:04:18;;;;;;;4.33;2.00;;;;;;;22.89;40.15;100675.59;31281892;28;20061;-74
2022/07/18 16:19:20;;;;;;;;;;;;;;;22.69;41.49;100679.91;31276436;28;20052;-78
2022/07/18 16:34:22;;;;;;;1.98;1.15;;;;;;;22.42;42.78;100688.69;31299419;28;19921;-77
2022/07/18 16:49:24;;;;;;;2.43;1.37;;;;;;;22.23;43.44;100688.19;31308435;28;20164;-77
2022/07/18 17:04:28;;;;;;;2.22;1.40;;;;;;;21.97;44.20;100699.16;31313695;28;20175;-78
2022/07/18 17:19:30;;;;;;;1.60;1.20;;;;;;;21.66;45.27;100702.50;31299096;28;20053;-78
2022/07/18 17:34:33;;;;;;;4.53;1.40;;;;;;;21.30;46.13;100709.22;31303358;28;20410;-78
2022/07/18 17:49:36;;;;;;;9.07;1.40;;;;;;;20.97;47.54;100736.25;31364074;28;20044;-77
2022/07/18 18:04:38;;;;;;;5.53;1.70;;;;;;;20.63;49.19;100745.88;31368943;28;20510;-77
2022/07/18 18:19:40;;;;;;;2.42;1.83;;;;;;;20.45;50.02;100757.81;31352995;28;20056;-77
2022/07/18 18:34:43;;;;;;;5.07;1.85;;;;;;;20.29;50.68;100772.75;31311160;28;20550;-76
2022/07/18 18:49:46;;;;;;;3.28;1.70;;;;;;;19.99;51.57;100777.38;31314892;28;20060;-77
2022/07/18 19:04:48;;;;;;;2.25;1.38;;;;;;;19.76;52.76;100780.84;31299768;28;20068;-76
2022/07/18 19:19:53;;;;;;;3.47;1.90;;;;;;;19.56;53.45;100788.88;31289146;28;20429;-75
2022/07/18 19:34:56;;;;;;;2.20;1.67;;;;;;;19.38;54.34;100787.63;31298871;28;20055;-77
2022/07/18 19:49:58;;;;;;;4.90;3.03;;;;;;;19.18;55.31;100798.38;31315108;28;20079;-77
2022/07/18 20:05:01;;;;;;;2.13;1.38;;;;;;;18.97;56.08;100796.56;31276462;28;20068;-77
2022/07/18 20:20:05;;;;;;;1.75;1.15;;;;;;;18.85;56.89;100783.75;31277341;28;20071;-77
2022/07/18 20:35:09;;;;;;;3.55;2.20;;;;;;;18.70;57.47;100787.09;31276144;28;20053;-76
2022/07/18 20:50:11;;;;;;;;;;;;;;;18.60;59.83;100793.81;31306448;28;20521;-76
2022/07/18 21:05:13;;;;;;;3.95;1.80;;;;;;;18.57;58.89;100789.19;31281468;28;20020;-77
2022/07/18 21:20:21;;;;;;;2.75;2.03;;;;;;;18.45;59.90;100786.56;31285155;28;20056;-77
2022/07/18 21:35:24;;;;;;;4.72;1.70;;;;;;;18.38;61.03;100782.13;31277979;28;20441;-76
2022/07/18 21:50:26;;;;;;;3.72;1.75;;;;;;;18.29;62.27;100801.34;31286501;28;20379;-77
2022/07/18 22:05:28;;;;;;;6.07;4.13;;;;;;;18.20;63.03;100804.06;31312553;28;20059;-77
2022/07/18 22:20:30;;;;;;;4.25;1.60;;;;;;;18.16;63.92;100795.22;31303983;28;20060;-69
2022/07/18 22:35:33;;;;;;;2.55;1.80;;;;;;;18.12;64.26;100791.84;31291300;28;20103;-67
2022/07/18 22:50:35;;;;;;;6.03;2.53;;;;;;;18.12;64.81;100798.09;31295859;28;20537;-68
2022/07/18 23:05:38;;;;;;;4.03;1.95;;;;;;;18.04;65.24;100792.13;31297362;28;20053;-68
2022/07/18 23:20:40;;;;;;;3.70;1.73;;;;;;;18.09;65.67;100787.25;31288047;28;20145;-68
2022/07/18 23:35:43;;;;;;;3.23;1.67;;;;;;;17.96;66.82;100795.59;31296244;28;20064;-68
2022/07/18 23:50:45;;;;;;;7.40;1.90;;;;;;;17.80;67.39;100788.34;31306564;28;20058;-68
